Time;durP1;ratioP1;P1;durP2;ratioP2;P2;SDS_P1;SDS_P2;PMS_P1;PMS_P2;Temp;Humidity;BMP_temperature;BMP_pressure;BME280_temperature;BME280_humidity;BME280_pressure;Samples;Min_cycle;Max_cycle;Signal;HPM_P1;HPM_P2
2022/04/12 00:00:57;;;;;;;11.05;6.40;;;;;;;;;;5013425;28;20088;-78
2022/04/12 00:03:23;;;;;;;11.25;7.15;;;;;;;;;;5013725;28;20078;-77
2022/04/12 00:05:51;;;;;;;10.45;5.97;;;;;;;;;;5016000;28;20078;-78
2022/04/12 00:08:18;;;;;;;12.43;7.05;;;;;;;;;;5016552;28;20508;-78
2022/04/12 00:10:45;;;;;;;10.43;7.40;;;;;;;;;;5017229;28;20058;-78
2022/04/12 00:13:13;;;;;;;10.52;6.35;;;;;;;;;;5016635;28;20108;-77
2022/04/12 00:15:41;;;;;;;10.85;6.30;;;;;;;;;;5015703;28;20528;-79
2022/04/12 00:20:53;;;;;;;12.65;6.95;;;;;;;;;;5016006;28;20550;-78
2022/04/12 00:23:20;;;;;;;10.30;6.47;;;;;;;;;;5015996;28;20107;-78
2022/04/12 00:25:47;;;;;;;9.40;6.13;;;;;;;;;;5016847;28;20523;-78
2022/04/12 00:28:14;;;;;;;9.88;6.28;;;;;;;;;;5023132;28;20046;-78
2022/04/12 00:30:43;;;;;;;9.35;6.25;;;;;;;;;;5023334;28;20564;-77
2022/04/12 00:33:10;;;;;;;11.27;6.55;;;;;;;;;;5016018;28;20050;-77
2022/04/12 00:35:37;;;;;;;11.40;6.68;;;;;;;;;;5015333;28;20082;-77
2022/04/12 00:38:13;;;;;;;9.65;6.22;;;;;;;;;;5015034;28;20512;-76
2022/04/12 00:40:40;;;;;;;9.75;6.65;;;;;;;;;;5015154;28;20045;-77
2022/04/12 00:43:07;;;;;;;10.75;7.40;;;;;;;;;;5015430;28;20053;-77
2022/04/12 00:45:34;;;;;;;11.52;6.60;;;;;;;;;;5007242;28;20097;-78
2022/04/12 00:48:02;;;;;;;10.25;6.47;;;;;;;;;;4996440;28;20088;-78
2022/04/12 00:50:29;;;;;;;10.70;6.18;;;;;;;;;;4996214;28;20046;-78
2022/04/12 00:52:57;;;;;;;10.98;6.82;;;;;;;;;;4996862;28;20097;-77
2022/04/12 00:55:24;;;;;;;10.38;6.72;;;;;;;;;;4996482;28;20082;-78
2022/04/12 00:57:51;;;;;;;10.45;6.72;;;;;;;;;;4996702;28;20509;-78
2022/04/12 01:00:19;;;;;;;9.40;6.22;;;;;;;;;;4996721;28;20050;-78
2022/04/12 01:02:46;;;;;;;10.23;6.25;;;;;;;;;;4995313;28;20097;-77
2022/04/12 01:05:14;;;;;;;9.52;6.70;;;;;;;;;;4994765;28;20051;-77
2022/04/12 01:07:43;;;;;;;9.80;6.65;;;;;;;;;;4994817;28;20046;-77
2022/04/12 01:10:10;;;;;;;10.23;7.20;;;;;;;;;;4994823;28;20078;-77
2022/04/12 01:12:41;;;;;;;9.55;6.90;;;;;;;;;;4995067;28;20398;-77
2022/04/12 01:15:11;;;;;;;9.63;6.88;;;;;;;;;;4994695;28;20057;-77
2022/04/12 01:17:38;;;;;;;10.35;7.22;;;;;;;;;;4994922;28;20152;-77
2022/04/12 01:20:06;;;;;;;9.88;7.15;;;;;;;;;;4994587;28;20085;-78
2022/04/12 01:22:37;;;;;;;10.98;6.70;;;;;;;;;;4994699;28;20091;-78
2022/04/12 01:25:06;;;;;;;;;;;;;;;;;;4994881;28;20074;-78
2022/04/12 01:27:33;;;;;;;8.55;5.95;;;;;;;;;;5036488;23;19922;-60
2022/04/12 01:30:00;;;;;;;11.85;6.65;;;;;;;;;;5013580;28;20049;-61
2022/04/12 01:32:26;;;;;;;12.55;6.88;;;;;;;;;;5013439;28;20062;-60
2022/04/12 01:34:53;;;;;;;11.07;6.97;;;;;;;;;;5013471;28;20380;-60
2022/04/12 01:37:21;;;;;;;12.40;7.28;;;;;;;;;;5013498;28;20061;-62
2022/04/12 01:39:48;;;;;;;12.02;7.82;;;;;;;;;;5013373;28;20064;-60
2022/04/12 01:42:16;;;;;;;10.60;6.18;;;;;;;;;;5013415;28;20056;-60
2022/04/12 01:44:43;;;;;;;10.13;6.03;;;;;;;;;;5013051;28;20045;-61
2022/04/12 01:47:09;;;;;;;11.15;7.15;;;;;;;;;;5013202;28;20495;-61
2022/04/12 01:49:36;;;;;;;10.88;7.20;;;;;;;;;;5013101;28;20054;-61
2022/04/12 01:52:04;;;;;;;12.15;7.60;;;;;;;;;;5013301;28;20493;-61
2022/04/12 01:54:31;;;;;;;11.55;7.20;;;;;;;;;;5012891;28;20486;-60
2022/04/12 01:56:57;;;;;;;11.68;7.38;;;;;;;;;;5013089;28;20054;-60
2022/04/12 01:59:26;;;;;;;10.85;7.30;;;;;;;;;;5012906;28;20096;-61
2022/04/12 02:01:53;;;;;;;10.32;6.32;;;;;;;;;;5013107;28;20054;-61
2022/04/12 02:04:19;;;;;;;8.85;6.35;;;;;;;;;;5012850;28;20050;-61
2022/04/12 02:06:46;;;;;;;10.63;6.68;;;;;;;;;;5012810;28;20085;-60
2022/04/12 02:09:13;;;;;;;12.15;7.05;;;;;;;;;;5012621;28;20041;-60
2022/04/12 02:11:40;;;;;;;9.18;6.25;;;;;;;;;;5012738;28;20054;-61
2022/04/12 02:14:08;;;;;;;10.13;7.72;;;;;;;;;;5012575;28;20054;-61
2022/04/12 02:16:36;;;;;;;11.07;7.22;;;;;;;;;;5012782;28;20507;-61
2022/04/12 02:19:03;;;;;;;12.43;7.13;;;;;;;;;;5012465;28;20064;-61
2022/04/12 02:21:30;;;;;;;9.32;7.30;;;;;;;;;;5012448;28;20081;-60
2022/04/12 02:23:57;;;;;;;12.35;7.80;;;;;;;;;;5012716;28;20046;-61
2022/04/12 02:26:24;;;;;;;12.07;8.15;;;;;;;;;;5012465;28;20104;-60
2022/04/12 02:28:51;;;;;;;15.23;8.20;;;;;;;;;;5012418;28;20049;-60
2022/04/12 02:31:18;;;;;;;12.05;7.03;;;;;;;;;;5012339;28;20046;-61
2022/04/12 02:33:47;;;;;;;9.30;6.40;;;;;;;;;;5012612;28;20054;-59
2022/04/12 02:36:14;;;;;;;8.88;6.38;;;;;;;;;;5012294;28;20081;-60
2022/04/12 02:38:40;;;;;;;14.90;8.07;;;;;;;;;;5012581;28;20487;-60
2022/04/12 02:41:07;;;;;;;12.57;6.70;;;;;;;;;;5012144;28;20549;-59
2022/04/12 02:43:34;;;;;;;10.35;6.55;;;;;;;;;;5012768;28;20080;-60
2022/04/12 02:46:01;;;;;;;11.60;6.55;;;;;;;;;;5014983;28;20054;-60
2022/04/12 02:48:28;;;;;;;10.77;7.63;;;;;;;;;;5012352;28;20058;-60
2022/04/12 02:50:57;;;;;;;12.77;7.13;;;;;;;;;;5012201;28;20053;-60
2022/04/12 02:53:24;;;;;;;11.43;6.50;;;;;;;;;;5012487;28;20061;-60
2022/04/12 02:55:50;;;;;;;11.38;6.85;;;;;;;;;;5012246;28;20050;-61
2022/04/12 02:58:17;;;;;;;10.73;6.45;;;;;;;;;;5012411;28;20065;-59
2022/04/12 03:00:44;;;;;;;10.40;6.05;;;;;;;;;;5012127;28;20487;-60
2022/04/12 03:03:11;;;;;;;10.07;6.72;;;;;;;;;;5012106;28;20046;-60
2022/04/12 03:05:38;;;;;;;10.10;6.60;;;;;;;;;;5012154;28;20116;-59
2022/04/12 03:08:07;;;;;;;11.70;7.30;;;;;;;;;;5012064;28;20052;-60
2022/04/12 03:10:34;;;;;;;12.40;6.70;;;;;;;;;;5012214;28;20503;-60
2022/04/12 03:13:01;;;;;;;11.27;7.15;;;;;;;;;;5012190;28;20080;-59
2022/04/12 03:15:27;;;;;;;11.63;6.38;;;;;;;;;;5011916;28;20050;-60
2022/04/12 03:17:54;;;;;;;11.75;7.53;;;;;;;;;;5012081;28;20046;-60
2022/04/12 03:20:21;;;;;;;9.85;6.32;;;;;;;;;;5012006;28;20058;-60
2022/04/12 03:22:48;;;;;;;10.38;6.65;;;;;;;;;;5011973;28;20490;-60
2022/04/12 03:25:16;;;;;;;13.23;7.32;;;;;;;;;;5012067;28;20410;-60
2022/04/12 03:27:43;;;;;;;11.07;6.90;;;;;;;;;;5011838;28;20046;-60
2022/04/12 03:30:11;;;;;;;11.93;7.13;;;;;;;;;;5011987;28;20057;-61
2022/04/12 03:32:38;;;;;;;11.38;7.50;;;;;;;;;;5011727;28;20141;-61
2022/04/12 03:35:05;;;;;;;11.68;7.18;;;;;;;;;;5011867;28;20340;-61
2022/04/12 03:37:32;;;;;;;9.80;6.65;;;;;;;;;;5011780;28;20064;-60
2022/04/12 03:39:59;;;;;;;11.68;7.57;;;;;;;;;;5013435;28;20062;-61
2022/04/12 03:42:28;;;;;;;12.75;7.07;;;;;;;;;;5015427;28;20053;-59
2022/04/12 03:44:54;;;;;;;9.85;6.53;;;;;;;;;;5015639;28;20050;-60
2022/04/12 03:47:21;;;;;;;11.07;6.63;;;;;;;;;;5015427;28;20057;-60
2022/04/12 03:49:48;;;;;;;10.60;7.45;;;;;;;;;;5015547;28;20509;-59
2022/04/12 03:52:15;;;;;;;11.63;7.03;;;;;;;;;;5015520;28;20057;-61
2022/04/12 03:54:42;;;;;;;11.02;7.32;;;;;;;;;;5015418;28;20053;-60
2022/04/12 03:57:09;;;;;;;12.00;6.72;;;;;;;;;;5015262;28;20053;-60
2022/04/12 03:59:37;;;;;;;11.43;7.40;;;;;;;;;;5015573;28;20053;-61
2022/04/12 04:02:04;;;;;;;12.57;7.90;;;;;;;;;;5015619;28;20486;-61
2022/04/12 04:04:31;;;;;;;9.27;6.00;;;;;;;;;;5015127;28;20050;-61
2022/04/12 04:06:58;;;;;;;11.70;7.18;;;;;;;;;;5015128;28;20062;-60
2022/04/12 04:09:25;;;;;;;11.77;7.70;;;;;;;;;;5015033;28;20073;-60
2022/04/12 04:11:51;;;;;;;11.90;7.40;;;;;;;;;;5015094;28;20407;-61
2022/04/12 04:14:18;;;;;;;11.07;6.93;;;;;;;;;;5015397;28;20049;-60
2022/04/12 04:16:46;;;;;;;11.63;7.53;;;;;;;;;;5015016;28;20152;-59
2022/04/12 04:19:13;;;;;;;15.45;7.57;;;;;;;;;;5015053;28;20049;-59
2022/04/12 04:21:40;;;;;;;12.93;7.50;;;;;;;;;;5014923;28;20057;-59
2022/04/12 04:24:07;;;;;;;11.90;7.57;;;;;;;;;;5015035;28;20057;-60
2022/04/12 04:26:34;;;;;;;13.13;8.10;;;;;;;;;;5014646;28;20426;-61
2022/04/12 04:29:01;;;;;;;14.88;8.10;;;;;;;;;;5015196;28;20050;-60
2022/04/12 04:31:28;;;;;;;11.65;7.68;;;;;;;;;;5014843;28;20061;-60
2022/04/12 04:33:57;;;;;;;15.73;8.38;;;;;;;;;;5014752;28;20124;-58
2022/04/12 04:36:23;;;;;;;12.85;7.82;;;;;;;;;;5014737;28;20054;-59
2022/04/12 04:38:50;;;;;;;14.50;7.95;;;;;;;;;;5014565;28;20050;-60
2022/04/12 04:41:17;;;;;;;16.33;8.30;;;;;;;;;;5014506;28;20529;-60
2022/04/12 04:43:45;;;;;;;14.98;8.15;;;;;;;;;;5014673;28;20050;-59
2022/04/12 04:46:13;;;;;;;14.07;7.95;;;;;;;;;;5014243;28;20153;-60
2022/04/12 04:48:41;;;;;;;13.73;7.70;;;;;;;;;;5014419;28;20128;-60
2022/04/12 04:51:09;;;;;;;14.57;7.95;;;;;;;;;;5013858;28;20149;-60
2022/04/12 04:53:37;;;;;;;13.55;8.85;;;;;;;;;;5014425;28;20054;-59
2022/04/12 04:56:05;;;;;;;12.50;7.20;;;;;;;;;;5014829;28;20144;-59
2022/04/12 04:58:32;;;;;;;13.02;8.02;;;;;;;;;;5014492;28;20054;-60
2022/04/12 05:00:59;;;;;;;12.05;6.85;;;;;;;;;;5014285;28;20112;-60
2022/04/12 05:03:27;;;;;;;10.60;7.32;;;;;;;;;;5014248;28;20518;-59
2022/04/12 05:05:53;;;;;;;13.65;7.60;;;;;;;;;;5014380;28;20058;-60
2022/04/12 05:08:22;;;;;;;12.55;7.22;;;;;;;;;;5014412;28;20427;-59
2022/04/12 05:10:49;;;;;;;12.60;7.20;;;;;;;;;;5013991;28;20053;-60
2022/04/12 05:13:16;;;;;;;13.98;6.80;;;;;;;;;;5014380;28;20057;-61
2022/04/12 05:15:43;;;;;;;11.38;7.32;;;;;;;;;;5014418;28;20088;-60
2022/04/12 05:18:10;;;;;;;9.75;6.47;;;;;;;;;;5013823;28;20054;-60
2022/04/12 05:20:38;;;;;;;11.52;6.72;;;;;;;;;;5014042;28;20056;-59
2022/04/12 05:23:05;;;;;;;13.23;7.47;;;;;;;;;;5013844;28;20098;-60
2022/04/12 05:25:33;;;;;;;13.82;7.88;;;;;;;;;;5013701;28;20054;-60
2022/04/12 05:28:00;;;;;;;11.80;7.32;;;;;;;;;;5013520;28;20054;-60
2022/04/12 05:30:27;;;;;;;10.82;7.28;;;;;;;;;;5013733;28;20054;-59
2022/04/12 05:32:54;;;;;;;11.85;7.10;;;;;;;;;;5013608;28;20041;-61
2022/04/12 05:35:21;;;;;;;13.27;7.85;;;;;;;;;;5013632;28;20053;-61
2022/04/12 05:37:51;;;;;;;11.05;7.65;;;;;;;;;;5013474;28;20054;-60
2022/04/12 05:40:18;;;;;;;12.70;7.03;;;;;;;;;;5013740;28;20132;-60
2022/04/12 05:42:47;;;;;;;10.05;6.60;;;;;;;;;;5013473;28;20097;-59
2022/04/12 05:45:15;;;;;;;14.10;7.10;;;;;;;;;;5013471;28;20606;-60
2022/04/12 05:47:45;;;;;;;13.60;7.28;;;;;;;;;;5012968;28;20061;-60
2022/04/12 05:50:14;;;;;;;11.45;6.60;;;;;;;;;;5013393;28;20053;-60
2022/04/12 05:52:41;;;;;;;12.65;6.70;;;;;;;;;;5013123;28;20461;-60
2022/04/12 05:55:09;;;;;;;10.15;6.40;;;;;;;;;;5013126;28;20525;-59
2022/04/12 05:57:38;;;;;;;16.25;8.45;;;;;;;;;;5013110;28;20049;-60
2022/04/12 06:00:08;;;;;;;15.02;9.40;;;;;;;;;;5013438;28;20074;-60
2022/04/12 06:02:35;;;;;;;14.47;9.00;;;;;;;;;;5012494;28;20054;-60
2022/04/12 06:05:02;;;;;;;15.68;8.32;;;;;;;;;;5013189;28;20753;-59
2022/04/12 06:07:33;;;;;;;15.52;8.45;;;;;;;;;;5012960;28;20058;-60
2022/04/12 06:10:00;;;;;;;13.95;9.10;;;;;;;;;;5013129;28;20141;-60
2022/04/12 06:12:28;;;;;;;14.43;8.85;;;;;;;;;;5012685;28;20058;-60
2022/04/12 06:14:55;;;;;;;12.45;8.77;;;;;;;;;;5012862;28;20085;-60
2022/04/12 06:17:30;;;;;;;13.05;7.80;;;;;;;;;;5012672;28;20057;-61
2022/04/12 06:20:01;;;;;;;13.73;7.55;;;;;;;;;;5012837;28;20529;-59
2022/04/12 06:22:28;;;;;;;14.55;8.55;;;;;;;;;;5012744;28;20133;-59
2022/04/12 06:24:54;;;;;;;14.52;9.38;;;;;;;;;;5012756;28;20054;-60
2022/04/12 06:27:30;;;;;;;12.93;8.52;;;;;;;;;;5012674;28;20060;-60
2022/04/12 06:29:57;;;;;;;12.77;8.05;;;;;;;;;;5012807;28;20069;-60
2022/04/12 06:32:26;;;;;;;11.95;7.90;;;;;;;;;;5012732;28;20061;-61
2022/04/12 06:34:53;;;;;;;13.57;7.88;;;;;;;;;;5012961;28;20053;-59
2022/04/12 06:37:24;;;;;;;13.85;7.57;;;;;;;;;;5012702;28;20053;-59
2022/04/12 06:39:51;;;;;;;12.60;7.47;;;;;;;;;;5012602;28;20112;-61
2022/04/12 06:42:18;;;;;;;18.75;8.30;;;;;;;;;;5012603;28;20045;-61
2022/04/12 06:44:45;;;;;;;10.45;6.88;;;;;;;;;;5012347;28;20554;-61
2022/04/12 06:47:12;;;;;;;10.13;6.88;;;;;;;;;;5012354;28;20056;-60
2022/04/12 06:49:40;;;;;;;11.50;6.05;;;;;;;;;;5012370;28;20053;-61
2022/04/12 06:52:07;;;;;;;11.35;7.20;;;;;;;;;;5012783;28;20060;-58
2022/04/12 06:54:34;;;;;;;10.18;6.80;;;;;;;;;;5012486;28;20104;-60
2022/04/12 06:57:01;;;;;;;11.95;8.15;;;;;;;;;;5012915;28;20407;-59
2022/04/12 06:59:29;;;;;;;13.40;7.45;;;;;;;;;;5012397;28;20061;-60
2022/04/12 07:01:56;;;;;;;10.48;6.88;;;;;;;;;;5012108;28;20057;-60
2022/04/12 07:04:23;;;;;;;15.48;7.25;;;;;;;;;;5012602;28;20050;-59
2022/04/12 07:06:51;;;;;;;11.02;7.32;;;;;;;;;;5012586;28;20602;-60
2022/04/12 07:09:20;;;;;;;10.60;7.13;;;;;;;;;;5012437;28;20054;-60
2022/04/12 07:11:47;;;;;;;11.18;7.57;;;;;;;;;;5012801;28;20144;-59
2022/04/12 07:14:14;;;;;;;14.05;7.97;;;;;;;;;;5013150;28;20068;-62
2022/04/12 07:16:41;;;;;;;13.82;8.60;;;;;;;;;;5015440;28;20058;-62
2022/04/12 07:19:08;;;;;;;14.57;9.32;;;;;;;;;;5016024;28;20046;-59
2022/04/12 07:21:35;;;;;;;14.32;8.75;;;;;;;;;;5016168;28;20052;-60
2022/04/12 07:24:04;;;;;;;16.77;10.85;;;;;;;;;;5016138;28;20049;-60
2022/04/12 07:26:31;;;;;;;39.80;30.45;;;;;;;;;;5015856;28;20112;-60
2022/04/12 07:28:59;;;;;;;32.80;26.55;;;;;;;;;;5039537;22;20045;-80
2022/04/12 07:31:26;;;;;;;13.80;9.35;;;;;;;;;;5029612;28;20578;-78
2022/04/12 07:33:53;;;;;;;10.23;7.45;;;;;;;;;;5012970;28;20081;-78
2022/04/12 07:36:20;;;;;;;9.88;7.32;;;;;;;;;;5016364;28;20057;-79
2022/04/12 07:38:48;;;;;;;13.85;7.93;;;;;;;;;;5009794;28;20050;-79
2022/04/12 07:41:16;;;;;;;12.88;7.03;;;;;;;;;;4998914;28;20497;-79
2022/04/12 07:43:45;;;;;;;10.38;6.88;;;;;;;;;;4994643;28;20073;-79
2022/04/12 07:46:12;;;;;;;11.73;7.07;;;;;;;;;;4994905;28;20104;-78
2022/04/12 07:48:39;;;;;;;9.50;6.80;;;;;;;;;;4995040;28;20097;-78
2022/04/12 07:51:06;;;;;;;8.68;6.20;;;;;;;;;;4994904;28;20425;-78
2022/04/12 07:53:32;;;;;;;8.95;6.60;;;;;;;;;;4994934;28;20583;-78
2022/04/12 07:55:59;;;;;;;9.32;6.90;;;;;;;;;;4994755;28;20050;-78
2022/04/12 07:58:27;;;;;;;10.05;6.20;;;;;;;;;;4995634;28;20081;-78
2022/04/12 08:00:54;;;;;;;11.48;6.22;;;;;;;;;;4995294;28;20164;-79
2022/04/12 08:03:21;;;;;;;10.20;5.90;;;;;;;;;;4995520;28;20681;-79
2022/04/12 08:05:48;;;;;;;9.27;6.43;;;;;;;;;;5003439;28;20046;-78
2022/04/12 08:08:15;;;;;;;12.80;6.97;;;;;;;;;;5019210;28;20057;-78
2022/04/12 08:10:41;;;;;;;14.20;8.45;;;;;;;;;;5008334;28;20049;-76
2022/04/12 08:13:08;;;;;;;9.23;6.20;;;;;;;;;;4996588;28;20124;-79
2022/04/12 08:15:37;;;;;;;10.88;7.15;;;;;;;;;;4994763;28;20050;-77
2022/04/12 08:18:04;;;;;;;10.52;5.78;;;;;;;;;;4994656;28;20272;-78
2022/04/12 08:20:31;;;;;;;9.07;5.53;;;;;;;;;;4995865;28;20523;-77
2022/04/12 08:22:58;;;;;;;7.63;4.38;;;;;;;;;;4996444;28;20050;-77
2022/04/12 08:25:25;;;;;;;9.65;4.90;;;;;;;;;;4995917;28;20051;-78
2022/04/12 08:27:52;;;;;;;8.50;5.53;;;;;;;;;;4995947;28;20498;-78
2022/04/12 08:30:19;;;;;;;8.00;5.22;;;;;;;;;;4996621;28;20066;-78
2022/04/12 08:32:47;;;;;;;9.43;5.20;;;;;;;;;;4998176;28;20097;-78
2022/04/12 08:35:15;;;;;;;9.07;5.35;;;;;;;;;;4998599;28;20464;-77
2022/04/12 08:37:43;;;;;;;8.48;4.50;;;;;;;;;;5033870;28;20049;-78
2022/04/12 08:40:11;;;;;;;7.63;4.57;;;;;;;;;;5031149;28;20074;-78
2022/04/12 08:42:38;;;;;;;8.30;5.03;;;;;;;;;;5015885;28;20076;-78
2022/04/12 08:45:06;;;;;;;7.43;4.35;;;;;;;;;;5011088;28;20410;-78
2022/04/12 08:47:35;;;;;;;6.72;4.25;;;;;;;;;;4995808;28;20046;-78
2022/04/12 08:50:05;;;;;;;7.03;4.05;;;;;;;;;;4995621;28;20057;-78
2022/04/12 08:52:32;;;;;;;;;;;;;;;;;;4996886;28;20144;-78
2022/04/12 08:55:01;;;;;;;7.47;4.20;;;;;;;;;;4995549;28;19921;-77
2022/04/12 08:57:29;;;;;;;6.57;4.30;;;;;;;;;;4995218;28;20060;-77
2022/04/12 08:59:56;;;;;;;6.20;3.65;;;;;;;;;;4994154;28;20050;-77
2022/04/12 09:02:24;;;;;;;6.35;4.03;;;;;;;;;;5003085;28;20058;-77
2022/04/12 09:04:50;;;;;;;7.18;4.28;;;;;;;;;;4995232;28;20497;-77
2022/04/12 09:07:24;;;;;;;6.85;4.25;;;;;;;;;;4999418;28;20104;-78
2022/04/12 09:09:51;;;;;;;6.47;5.10;;;;;;;;;;5012459;28;20050;-78
2022/04/12 09:12:18;;;;;;;9.30;5.55;;;;;;;;;;5016676;28;20208;-78
2022/04/12 09:14:48;;;;;;;9.95;5.93;;;;;;;;;;5018329;28;20540;-78
2022/04/12 09:17:19;;;;;;;8.77;5.57;;;;;;;;;;5019963;28;20456;-78
2022/04/12 09:19:48;;;;;;;9.73;6.43;;;;;;;;;;5018564;28;20124;-78
2022/04/12 09:22:16;;;;;;;10.07;6.50;;;;;;;;;;5018564;28;20084;-78
2022/04/12 09:24:49;;;;;;;8.75;6.00;;;;;;;;;;5018017;28;20042;-77
2022/04/12 09:27:17;;;;;;;8.68;5.88;;;;;;;;;;5017682;28;20050;-78
2022/04/12 09:29:46;;;;;;;10.60;6.55;;;;;;;;;;5018350;28;20050;-78
2022/04/12 09:32:15;;;;;;;15.40;6.63;;;;;;;;;;5017610;28;20117;-78
2022/04/12 09:34:43;;;;;;;10.23;6.30;;;;;;;;;;5005653;28;20124;-78
2022/04/12 09:37:21;;;;;;;9.73;6.05;;;;;;;;;;4994870;28;20046;-78
2022/04/12 09:39:54;;;;;;;8.65;5.97;;;;;;;;;;5002686;28;20046;-78
2022/04/12 09:42:39;;;;;;;7.78;6.53;;;;;;;;;;5003377;28;20050;-78
2022/04/12 09:45:08;;;;;;;10.43;5.90;;;;;;;;;;4999605;28;20074;-78
2022/04/12 09:47:35;;;;;;;8.50;6.47;;;;;;;;;;4996205;28;20084;-79
2022/04/12 09:50:03;;;;;;;10.25;6.03;;;;;;;;;;4994924;28;20136;-79
2022/04/12 09:52:30;;;;;;;9.40;5.88;;;;;;;;;;4995071;28;20108;-78
2022/04/12 09:54:59;;;;;;;8.75;6.20;;;;;;;;;;5008177;28;20045;-77
2022/04/12 09:57:26;;;;;;;11.43;6.80;;;;;;;;;;5012133;28;20100;-77
2022/04/12 09:59:55;;;;;;;9.18;5.93;;;;;;;;;;5011599;28;20045;-77
2022/04/12 10:02:24;;;;;;;9.32;5.95;;;;;;;;;;5012228;28;20129;-77
2022/04/12 10:04:52;;;;;;;12.15;6.68;;;;;;;;;;5012520;28;20068;-77
2022/04/12 10:07:20;;;;;;;8.57;6.38;;;;;;;;;;5015379;28;20119;-77
2022/04/12 10:09:49;;;;;;;9.00;6.20;;;;;;;;;;5020223;28;20109;-77
2022/04/12 10:12:18;;;;;;;8.13;5.53;;;;;;;;;;5020627;28;20069;-77
2022/04/12 10:14:46;;;;;;;10.55;6.68;;;;;;;;;;5020762;28;20105;-77
2022/04/12 10:17:13;;;;;;;8.00;5.45;;;;;;;;;;5021232;28;20060;-77
2022/04/12 10:19:40;;;;;;;9.43;6.15;;;;;;;;;;5020239;28;20042;-77
2022/04/12 10:22:07;;;;;;;9.15;5.80;;;;;;;;;;5019361;28;20479;-78
2022/04/12 10:24:35;;;;;;;8.20;5.65;;;;;;;;;;5037164;28;20045;-78
2022/04/12 10:27:03;;;;;;;8.23;5.50;;;;;;;;;;4996238;28;20069;-78
2022/04/12 10:29:31;;;;;;;9.07;5.57;;;;;;;;;;5013288;28;20497;-83
2022/04/12 10:32:00;;;;;;;8.80;5.50;;;;;;;;;;5014544;28;20452;-81
2022/04/12 10:34:27;;;;;;;9.60;5.38;;;;;;;;;;5014714;28;20087;-79
2022/04/12 10:37:08;;;;;;;10.50;7.95;;;;;;;;;;5015274;28;20050;-79
2022/04/12 10:39:45;;;;;;;8.35;5.20;;;;;;;;;;5015357;28;20054;-80
2022/04/12 10:42:17;;;;;;;8.55;5.18;;;;;;;;;;5015872;28;20099;-80
2022/04/12 10:44:47;;;;;;;7.50;5.07;;;;;;;;;;5015609;28;20042;-80
2022/04/12 10:47:24;;;;;;;8.98;5.15;;;;;;;;;;5016290;28;20049;-78
2022/04/12 10:50:00;;;;;;;8.20;5.05;;;;;;;;;;5013563;28;20523;-80
2022/04/12 10:52:37;;;;;;;8.27;5.15;;;;;;;;;;5013258;28;20077;-80
2022/04/12 10:55:08;;;;;;;8.50;5.68;;;;;;;;;;5013725;28;20053;-79
2022/04/12 10:57:35;;;;;;;7.38;5.43;;;;;;;;;;5014967;28;20651;-80
2022/04/12 11:00:09;;;;;;;10.05;6.88;;;;;;;;;;5015224;28;20042;-80
2022/04/12 11:02:42;;;;;;;10.38;7.32;;;;;;;;;;5015500;28;20050;-80
2022/04/12 11:05:56;;;;;;;11.57;8.05;;;;;;;;;;5015215;28;20413;-80
2022/04/12 11:08:49;;;;;;;9.15;6.88;;;;;;;;;;4978677;28;20054;-79
2022/04/12 11:11:29;;;;;;;10.00;5.95;;;;;;;;;;5014723;28;20046;-81
2022/04/12 11:14:16;;;;;;;8.07;6.32;;;;;;;;;;5015321;28;20092;-80
2022/04/12 11:16:51;;;;;;;10.02;6.50;;;;;;;;;;5016931;28;20049;-79
2022/04/12 11:19:21;;;;;;;9.57;5.90;;;;;;;;;;5015038;28;20050;-80
2022/04/12 11:22:01;;;;;;;13.30;6.93;;;;;;;;;;5016093;28;20045;-80
2022/04/12 11:24:27;;;;;;;8.20;6.37;;;;;;;;;;5015461;28;20042;-80
2022/04/12 11:27:05;;;;;;;9.70;6.55;;;;;;;;;;5015580;28;20279;-80
2022/04/12 11:29:32;;;;;;;9.60;6.03;;;;;;;;;;5015010;28;20081;-80
2022/04/12 11:32:01;;;;;;;26.25;14.73;;;;;;;;;;5015063;28;20096;-80
2022/04/12 11:34:29;;;;;;;13.10;7.68;;;;;;;;;;5015566;28;20057;-80
2022/04/12 11:36:57;;;;;;;20.63;10.93;;;;;;;;;;5018254;28;20070;-80
2022/04/12 11:39:36;;;;;;;11.48;7.57;;;;;;;;;;5037952;28;20034;-79
2022/04/12 11:42:04;;;;;;;19.52;9.45;;;;;;;;;;5036845;28;20061;-80
2022/04/12 11:44:31;;;;;;;18.25;9.43;;;;;;;;;;5018755;28;20097;-80
2022/04/12 11:47:01;;;;;;;11.60;7.38;;;;;;;;;;4994198;28;20058;-80
2022/04/12 11:49:29;;;;;;;13.77;7.07;;;;;;;;;;4997291;28;20109;-80
2022/04/12 11:51:59;;;;;;;11.88;7.45;;;;;;;;;;5005754;28;20053;-80
2022/04/12 11:54:27;;;;;;;12.68;6.78;;;;;;;;;;4999146;28;20057;-80
2022/04/12 11:56:59;;;;;;;10.88;6.95;;;;;;;;;;4999707;28;20089;-80
2022/04/12 11:59:26;;;;;;;11.75;7.40;;;;;;;;;;5016595;28;20073;-80
2022/04/12 12:01:53;;;;;;;11.27;7.15;;;;;;;;;;5018308;28;20088;-80
2022/04/12 12:04:21;;;;;;;11.63;7.43;;;;;;;;;;5017700;28;20052;-80
2022/04/12 12:06:59;;;;;;;10.88;7.55;;;;;;;;;;5017040;28;20161;-80
2022/04/12 12:09:26;;;;;;;11.45;7.25;;;;;;;;;;5017844;28;20045;-80
2022/04/12 12:11:57;;;;;;;11.52;7.32;;;;;;;;;;5017874;28;20152;-80
2022/04/12 12:14:23;;;;;;;12.13;7.20;;;;;;;;;;5017127;28;20081;-80
2022/04/12 12:17:04;;;;;;;12.13;8.80;;;;;;;;;;5017421;28;20413;-80
2022/04/12 12:19:38;;;;;;;11.48;6.95;;;;;;;;;;5017272;28;20053;-80
2022/04/12 12:22:06;;;;;;;13.38;7.32;;;;;;;;;;5017567;28;20054;-80
2022/04/12 12:24:37;;;;;;;13.70;7.50;;;;;;;;;;5020417;28;20050;-80
2022/04/12 12:27:05;;;;;;;13.68;7.63;;;;;;;;;;5024381;28;20049;-80
2022/04/12 12:29:36;;;;;;;12.60;7.68;;;;;;;;;;5022659;28;20050;-79
2022/04/12 12:32:03;;;;;;;10.85;6.82;;;;;;;;;;5021269;28;20052;-80
2022/04/12 12:34:31;;;;;;;10.23;7.15;;;;;;;;;;5021400;28;20698;-80
2022/04/12 12:37:06;;;;;;;10.77;7.35;;;;;;;;;;5029936;28;20085;-80
2022/04/12 12:39:37;;;;;;;13.40;8.60;;;;;;;;;;5029894;28;20080;-82
2022/04/12 12:42:04;;;;;;;14.10;8.57;;;;;;;;;;5031210;28;20049;-80
2022/04/12 12:44:34;;;;;;;16.52;8.50;;;;;;;;;;5032086;28;20068;-80
2022/04/12 12:47:04;;;;;;;14.77;8.50;;;;;;;;;;5032381;28;20496;-80
2022/04/12 12:49:36;;;;;;;14.68;8.77;;;;;;;;;;5035068;28;20687;-80
2022/04/12 12:52:06;;;;;;;15.50;9.18;;;;;;;;;;5037390;28;20044;-80
2022/04/12 12:54:33;;;;;;;12.43;7.85;;;;;;;;;;5037693;28;20034;-81
2022/04/12 12:57:01;;;;;;;13.20;8.38;;;;;;;;;;5034764;28;20285;-80
2022/04/12 12:59:29;;;;;;;13.57;8.73;;;;;;;;;;5025438;28;20046;-80
2022/04/12 13:01:58;;;;;;;12.68;8.48;;;;;;;;;;5025513;28;20046;-80
2022/04/12 13:04:26;;;;;;;14.57;8.18;;;;;;;;;;5024214;28;20061;-80
2022/04/12 13:07:06;;;;;;;14.70;8.48;;;;;;;;;;5023907;28;20050;-80
2022/04/12 13:09:34;;;;;;;16.08;9.38;;;;;;;;;;5023727;28;20543;-80
2022/04/12 13:12:01;;;;;;;14.15;8.82;;;;;;;;;;5024726;28;20092;-80
2022/04/12 13:14:27;;;;;;;15.60;9.10;;;;;;;;;;5024561;28;20053;-79
2022/04/12 13:16:54;;;;;;;12.82;8.80;;;;;;;;;;5024165;28;20045;-80
2022/04/12 13:19:29;;;;;;;15.35;9.27;;;;;;;;;;5022050;28;20046;-79
2022/04/12 13:21:56;;;;;;;18.35;9.10;;;;;;;;;;5020406;28;20042;-79
2022/04/12 13:24:24;;;;;;;15.77;8.43;;;;;;;;;;5021700;28;20076;-80
2022/04/12 13:26:51;;;;;;;22.75;9.68;;;;;;;;;;5023230;28;20042;-79
2022/04/12 13:29:18;;;;;;;16.60;9.30;;;;;;;;;;5023222;28;20104;-79
2022/04/12 13:31:45;;;;;;;19.38;8.85;;;;;;;;;;5021155;28;20424;-79
2022/04/12 13:34:12;;;;;;;14.77;8.40;;;;;;;;;;5021214;28;20129;-79
2022/04/12 13:36:39;;;;;;;12.75;7.80;;;;;;;;;;5023123;28;20054;-80
2022/04/12 13:39:08;;;;;;;14.82;8.95;;;;;;;;;;5027273;28;20049;-80
2022/04/12 13:41:37;;;;;;;14.20;9.00;;;;;;;;;;5026963;28;20077;-79
2022/04/12 13:44:04;;;;;;;14.43;8.20;;;;;;;;;;5027767;28;20046;-81
2022/04/12 13:46:31;;;;;;;16.73;9.82;;;;;;;;;;5010653;28;20065;-81
2022/04/12 13:48:58;;;;;;;13.52;7.85;;;;;;;;;;5007455;28;20062;-80
2022/04/12 13:51:25;;;;;;;14.10;8.13;;;;;;;;;;5016366;28;20050;-80
2022/04/12 13:53:51;;;;;;;16.27;8.52;;;;;;;;;;5008725;28;20053;-81
2022/04/12 13:56:18;;;;;;;17.00;9.27;;;;;;;;;;5007283;28;20046;-80
2022/04/12 13:58:46;;;;;;;18.08;8.65;;;;;;;;;;5006400;28;20055;-80
2022/04/12 14:01:13;;;;;;;17.15;8.38;;;;;;;;;;5007122;28;20101;-81
2022/04/12 14:03:40;;;;;;;12.48;7.88;;;;;;;;;;5007794;28;20049;-81
2022/04/12 14:06:06;;;;;;;13.80;7.72;;;;;;;;;;5007217;28;20038;-80
2022/04/12 14:08:35;;;;;;;11.25;7.28;;;;;;;;;;5006789;28;20042;-81
2022/04/12 14:11:03;;;;;;;18.90;8.00;;;;;;;;;;5006527;28;20073;-81
2022/04/12 14:13:30;;;;;;;13.90;7.07;;;;;;;;;;5006729;28;20052;-81
2022/04/12 14:15:58;;;;;;;12.65;7.13;;;;;;;;;;5006695;28;20096;-81
2022/04/12 14:18:25;;;;;;;12.63;7.07;;;;;;;;;;5006667;28;20062;-82
2022/04/12 14:20:53;;;;;;;15.63;7.82;;;;;;;;;;5006275;28;20050;-81
2022/04/12 14:23:20;;;;;;;13.15;7.88;;;;;;;;;;5004217;28;20046;-81
2022/04/12 14:25:47;;;;;;;12.70;6.90;;;;;;;;;;5004773;28;20054;-81
2022/04/12 14:28:13;;;;;;;12.75;7.15;;;;;;;;;;5004369;28;20073;-80
2022/04/12 14:30:40;;;;;;;14.38;7.72;;;;;;;;;;5005436;28;20053;-80
2022/04/12 14:33:09;;;;;;;11.95;7.00;;;;;;;;;;5005522;28;20299;-80
2022/04/12 14:35:36;;;;;;;11.13;6.32;;;;;;;;;;5012877;28;20042;-81
2022/04/12 14:38:03;;;;;;;12.07;6.43;;;;;;;;;;5020766;28;20061;-80
2022/04/12 14:40:31;;;;;;;11.52;6.90;;;;;;;;;;5013620;28;20050;-81
2022/04/12 14:42:58;;;;;;;10.55;6.82;;;;;;;;;;5013678;28;20050;-81